createdAt,value
2023-09-04T00:02:11.174Z,20.80
2023-09-04T00:04:38.216Z,20.50
2023-09-04T00:07:05.208Z,20.60
2023-09-04T00:09:32.268Z,20.60
2023-09-04T00:11:59.302Z,20.50
2023-09-04T00:14:26.256Z,20.40
2023-09-04T00:16:53.262Z,20.20
2023-09-04T00:19:20.242Z,20.10
2023-09-04T00:21:47.248Z,20.00
2023-09-04T00:24:14.172Z,20.00
2023-09-04T00:26:41.148Z,19.90
2023-09-04T00:29:08.101Z,19.70
2023-09-04T00:31:35.783Z,19.80
2023-09-04T00:34:03.478Z,19.70
2023-09-04T00:36:30.440Z,19.60
2023-09-04T00:38:57.437Z,19.60
2023-09-04T00:41:24.419Z,19.40
2023-09-04T00:43:51.349Z,19.40
2023-09-04T00:46:19.577Z,19.20
2023-09-04T00:48:47.607Z,19.20
2023-09-04T00:51:14.790Z,19.20
2023-09-04T00:53:42.899Z,19.20
2023-09-04T00:56:13.545Z,19.00
2023-09-04T00:58:40.595Z,18.90
2023-09-04T01:01:07.856Z,19.10
2023-09-04T01:03:34.930Z,19.00
2023-09-04T01:06:03.158Z,19.00
2023-09-04T01:08:30.216Z,19.00
2023-09-04T01:11:06.211Z,18.90
2023-09-04T01:13:48.151Z,18.80
2023-09-04T01:16:17.853Z,18.60
2023-09-04T01:18:45.856Z,18.50
2023-09-04T01:21:12.972Z,18.50
2023-09-04T01:23:39.977Z,18.60
2023-09-04T01:26:14.143Z,18.70
2023-09-04T01:28:49.209Z,18.60
2023-09-04T01:31:27.976Z,18.60
2023-09-04T01:34:26.232Z,18.70
2023-09-04T01:36:54.301Z,18.60
2023-09-04T01:39:25.543Z,18.60
2023-09-04T01:41:52.577Z,18.60
2023-09-04T01:44:20.571Z,18.70
2023-09-04T01:46:47.671Z,18.60
2023-09-04T01:49:14.665Z,18.70
2023-09-04T01:51:41.419Z,18.70
2023-09-04T01:54:09.001Z,18.60
2023-09-04T01:56:35.873Z,18.70
2023-09-04T01:59:02.656Z,18.60
2023-09-04T02:01:30.024Z,18.70
2023-09-04T02:03:59.108Z,18.60
2023-09-04T02:06:30.216Z,18.50
2023-09-04T02:08:57.634Z,18.40
2023-09-04T02:11:24.885Z,18.60
2023-09-04T02:13:51.790Z,18.50
2023-09-04T02:16:18.646Z,18.60
2023-09-04T02:18:45.527Z,18.50
2023-09-04T02:21:12.277Z,18.30
2023-09-04T02:23:39.261Z,18.30
2023-09-04T02:26:06.011Z,18.10
2023-09-04T02:28:32.857Z,18.30
2023-09-04T02:31:05.002Z,18.20
2023-09-04T02:33:31.811Z,18.20
2023-09-04T02:35:58.637Z,18.10
2023-09-04T02:38:25.983Z,18.00
2023-09-04T02:40:53.001Z,18.00
2023-09-04T02:43:19.760Z,18.20
2023-09-04T02:45:47.651Z,18.20
2023-09-04T02:48:14.743Z,18.20
2023-09-04T02:50:41.729Z,18.10
2023-09-04T02:53:08.589Z,17.80
2023-09-04T02:55:35.341Z,17.90
2023-09-04T02:58:02.507Z,17.70
2023-09-04T03:00:29.287Z,17.70
2023-09-04T03:02:56.972Z,17.80
2023-09-04T03:05:27.102Z,17.70
2023-09-04T03:07:53.942Z,17.70
2023-09-04T03:10:20.775Z,17.80
2023-09-04T03:12:47.535Z,17.80
2023-09-04T03:15:14.333Z,17.80
2023-09-04T03:17:41.113Z,17.80
2023-09-04T03:20:10.745Z,17.80
2023-09-04T03:22:38.301Z,17.80
2023-09-04T03:25:05.492Z,17.60
2023-09-04T03:27:32.211Z,17.70
2023-09-04T03:29:59.366Z,18.00
2023-09-04T03:32:26.142Z,18.00
2023-09-04T03:34:53.429Z,18.10
2023-09-04T03:37:20.189Z,18.10
2023-09-04T03:39:47.016Z,18.00
2023-09-04T03:42:13.854Z,18.00
2023-09-04T03:44:40.608Z,18.00
2023-09-04T03:47:07.429Z,18.00
2023-09-04T03:49:34.212Z,18.20
2023-09-04T03:52:00.976Z,18.30
2023-09-04T03:54:29.963Z,18.30
2023-09-04T03:56:56.898Z,18.10
2023-09-04T03:59:23.729Z,18.10
2023-09-04T04:01:50.474Z,17.90
2023-09-04T04:04:17.313Z,17.80
2023-09-04T04:06:44.163Z,17.80
2023-09-04T04:09:12.687Z,17.80
2023-09-04T04:11:39.465Z,17.60
2023-09-04T04:14:07.125Z,17.70
2023-09-04T04:16:36.286Z,17.80
2023-09-04T04:19:03.181Z,17.80
2023-09-04T04:21:30.006Z,18.00
2023-09-04T04:23:56.853Z,17.90
2023-09-04T04:26:23.690Z,17.80
2023-09-04T04:28:50.504Z,17.80
2023-09-04T04:31:17.274Z,17.80
2023-09-04T04:33:44.064Z,17.60
2023-09-04T04:36:10.800Z,17.60
2023-09-04T04:38:37.616Z,17.60
2023-09-04T04:41:04.386Z,17.60
2023-09-04T04:43:31.537Z,17.60
2023-09-04T04:45:58.406Z,17.60
2023-09-04T04:48:25.522Z,17.60
2023-09-04T04:50:55.931Z,17.60
2023-09-04T04:53:23.436Z,17.40
2023-09-04T04:55:50.218Z,17.30
2023-09-04T04:58:17.025Z,17.10
2023-09-04T05:00:43.839Z,17.30
2023-09-04T05:03:10.656Z,17.30
2023-09-04T05:05:37.481Z,17.10
2023-09-04T05:08:04.470Z,17.00
2023-09-04T05:10:31.282Z,17.00
2023-09-04T05:12:58.038Z,17.00
2023-09-04T05:15:24.985Z,17.00
2023-09-04T05:17:51.811Z,17.00
2023-09-04T05:20:18.802Z,16.90
2023-09-04T05:22:45.853Z,17.00
2023-09-04T05:25:13.590Z,17.00
2023-09-04T05:27:40.389Z,17.00
2023-09-04T05:30:07.857Z,17.30
2023-09-04T05:32:34.679Z,17.30
2023-09-04T05:35:01.548Z,17.20
2023-09-04T05:37:28.334Z,17.30
2023-09-04T05:39:55.229Z,17.10
2023-09-04T05:42:22.022Z,17.20
2023-09-04T05:44:48.901Z,17.20
2023-09-04T05:47:15.629Z,17.20
2023-09-04T05:49:42.491Z,17.20
2023-09-04T05:52:09.501Z,17.20
2023-09-04T05:54:36.317Z,17.20
2023-09-04T05:57:03.090Z,17.30
2023-09-04T05:59:29.983Z,17.50
2023-09-04T06:01:56.759Z,17.60
2023-09-04T06:04:25.307Z,17.50
2023-09-04T06:06:52.953Z,17.40
2023-09-04T06:09:20.312Z,17.50
2023-09-04T06:11:47.138Z,17.60
2023-09-04T06:14:13.992Z,17.60
2023-09-04T06:16:40.771Z,17.70
2023-09-04T06:19:07.844Z,18.00
2023-09-04T06:21:34.606Z,17.90
2023-09-04T06:24:01.454Z,18.00
2023-09-04T06:26:28.833Z,18.20
2023-09-04T06:28:55.620Z,18.20
2023-09-04T06:31:22.930Z,18.40
2023-09-04T06:33:50.195Z,18.50
2023-09-04T06:36:17.041Z,18.50
2023-09-04T06:38:43.895Z,18.50
2023-09-04T06:41:10.693Z,18.50
2023-09-04T06:43:37.564Z,18.60
2023-09-04T06:46:04.565Z,18.50
2023-09-04T06:48:31.612Z,18.50
2023-09-04T06:50:58.369Z,18.50
2023-09-04T06:53:25.150Z,18.50
2023-09-04T06:55:53.050Z,18.70
2023-09-04T06:58:19.923Z,18.60
2023-09-04T07:00:46.694Z,18.70
2023-09-04T07:03:13.642Z,18.80
2023-09-04T07:05:40.417Z,18.90
2023-09-04T07:08:07.225Z,19.00
2023-09-04T07:10:34.110Z,19.00
2023-09-04T07:13:02.609Z,19.00
2023-09-04T07:15:29.671Z,19.10
2023-09-04T07:18:00.743Z,19.10
2023-09-04T07:20:28.882Z,19.10
2023-09-04T07:23:06.261Z,19.10
2023-09-04T07:25:41.781Z,19.00
2023-09-04T07:28:08.579Z,19.20
2023-09-04T07:30:35.407Z,19.40
2023-09-04T07:33:02.272Z,19.40
2023-09-04T07:35:30.132Z,19.40
2023-09-04T07:37:57.926Z,19.50
2023-09-04T07:40:24.786Z,19.60
2023-09-04T07:42:51.523Z,19.30
2023-09-04T07:45:18.422Z,19.60
2023-09-04T07:47:45.333Z,19.70
2023-09-04T07:50:12.618Z,19.90
2023-09-04T07:52:39.440Z,20.00
2023-09-04T07:55:09.908Z,20.10
2023-09-04T07:57:37.023Z,20.40
2023-09-04T08:00:04.388Z,20.30
2023-09-04T08:02:31.221Z,20.30
2023-09-04T08:04:58.919Z,20.60
2023-09-04T08:07:25.828Z,20.80
2023-09-04T08:09:52.641Z,20.70
2023-09-04T08:12:19.459Z,21.00
2023-09-04T08:14:48.406Z,21.20
2023-09-04T08:17:15.256Z,21.10
2023-09-04T08:19:42.020Z,21.40
2023-09-04T08:22:08.758Z,21.50
2023-09-04T08:24:35.563Z,21.90
2023-09-04T08:27:02.335Z,22.10
2023-09-04T08:29:29.164Z,22.60
2023-09-04T08:31:55.996Z,22.90
2023-09-04T08:34:22.772Z,22.70
2023-09-04T08:36:49.661Z,22.60
2023-09-04T08:39:16.718Z,22.70
2023-09-04T08:41:43.774Z,22.50
2023-09-04T08:44:10.657Z,22.40
2023-09-04T08:46:39.446Z,22.80
2023-09-04T08:49:07.698Z,23.10
2023-09-04T08:51:34.458Z,23.10
2023-09-04T08:54:01.552Z,23.10
2023-09-04T08:56:30.921Z,22.90
2023-09-04T08:58:57.771Z,23.20
2023-09-04T09:01:27.709Z,23.40
2023-09-04T09:03:56.098Z,23.60
2023-09-04T09:06:23.169Z,23.70
2023-09-04T09:08:55.187Z,23.70
2023-09-04T09:11:23.823Z,23.60
2023-09-04T09:13:50.632Z,23.50
2023-09-04T09:16:21.382Z,23.70
2023-09-04T09:18:49.737Z,23.80
2023-09-04T09:21:32.209Z,24.00
2023-09-04T09:24:16.916Z,24.00
2023-09-04T09:26:50.042Z,23.70
2023-09-04T09:29:18.952Z,23.80
2023-09-04T09:31:47.169Z,23.70
2023-09-04T09:34:14.667Z,23.90
2023-09-04T09:36:41.551Z,24.00
2023-09-04T09:39:08.670Z,24.10
2023-09-04T09:41:35.926Z,24.20
2023-09-04T09:44:05.010Z,24.40
2023-09-04T09:46:35.785Z,24.40
2023-09-04T09:49:02.702Z,24.60
2023-09-04T09:51:32.314Z,24.80
2023-09-04T09:53:59.183Z,24.60
2023-09-04T09:56:26.535Z,24.70
2023-09-04T09:58:53.378Z,24.70
2023-09-04T10:01:20.600Z,24.70
2023-09-04T10:03:48.612Z,24.80
2023-09-04T10:06:24.427Z,24.70
2023-09-04T10:08:52.863Z,24.60
2023-09-04T10:11:19.924Z,24.60
2023-09-04T10:14:12.692Z,24.80
2023-09-04T10:16:56.914Z,24.90
2023-09-04T10:19:28.876Z,24.90
2023-09-04T10:22:09.672Z,25.00
2023-09-04T10:25:10.187Z,24.90
2023-09-04T10:27:45.371Z,24.80
2023-09-04T10:30:18.231Z,24.60
2023-09-04T10:32:45.281Z,24.50
2023-09-04T10:35:12.643Z,24.60
2023-09-04T10:37:39.562Z,24.70
2023-09-04T10:40:08.213Z,24.70
2023-09-04T10:42:35.431Z,24.80
2023-09-04T10:45:21.712Z,24.80
2023-09-04T10:47:51.430Z,24.80
2023-09-04T10:50:40.788Z,24.90
2023-09-04T10:53:09.536Z,25.00
2023-09-04T10:55:37.908Z,25.00
2023-09-04T10:58:07.047Z,25.20
2023-09-04T11:00:36.444Z,25.30
2023-09-04T11:03:20.490Z,25.40
2023-09-04T11:06:09.564Z,25.40
2023-09-04T11:08:40.151Z,25.50
2023-09-04T11:11:09.245Z,25.50
2023-09-04T11:13:40.973Z,25.60
2023-09-04T11:16:08.991Z,25.70
2023-09-04T11:18:36.990Z,25.80
2023-09-04T11:21:04.787Z,25.80
2023-09-04T11:23:34.888Z,25.80
2023-09-04T11:26:01.712Z,25.90
2023-09-04T11:28:28.565Z,26.00
2023-09-04T11:31:00.421Z,26.00
2023-09-04T11:33:35.525Z,25.90
2023-09-04T11:36:04.780Z,25.90
2023-09-04T11:38:33.480Z,26.00
2023-09-04T11:41:01.933Z,26.10
2023-09-04T11:43:29.215Z,26.10
2023-09-04T11:45:57.059Z,26.10
2023-09-04T11:48:28.269Z,26.20
2023-09-04T11:50:55.970Z,26.30
2023-09-04T11:53:24.214Z,26.20
2023-09-04T11:55:54.461Z,26.40
2023-09-04T11:58:22.407Z,26.40
2023-09-04T12:00:49.439Z,26.40
2023-09-04T12:03:16.366Z,26.30
2023-09-04T12:05:43.494Z,26.40
2023-09-04T12:08:10.797Z,26.50
2023-09-04T12:10:41.440Z,26.60
2023-09-04T12:13:08.219Z,26.60
2023-09-04T12:15:35.091Z,26.80
2023-09-04T12:18:06.749Z,26.90
2023-09-04T12:20:45.256Z,26.80
2023-09-04T12:23:12.084Z,26.90
2023-09-04T12:25:41.295Z,26.90
2023-09-04T12:28:10.727Z,26.90
2023-09-04T12:30:47.033Z,26.90
2023-09-04T12:33:18.231Z,26.90
2023-09-04T12:35:53.407Z,26.90
2023-09-04T12:38:20.387Z,27.00
2023-09-04T12:40:47.829Z,27.00
2023-09-04T12:43:14.781Z,27.10
2023-09-04T12:45:41.663Z,27.10
2023-09-04T12:48:18.121Z,27.00
2023-09-04T12:50:45.399Z,27.00
2023-09-04T12:53:13.839Z,27.00
2023-09-04T12:55:40.707Z,27.00
2023-09-04T12:58:10.518Z,27.20
2023-09-04T13:00:38.483Z,27.30
2023-09-04T13:03:08.689Z,27.30
2023-09-04T13:05:35.575Z,27.30
2023-09-04T13:08:02.469Z,27.30
2023-09-04T13:10:29.282Z,27.30
2023-09-04T13:12:56.099Z,27.20
2023-09-04T13:15:23.097Z,27.20
2023-09-04T13:17:49.838Z,27.10
2023-09-04T13:20:16.684Z,27.20
2023-09-04T13:22:47.451Z,27.20
2023-09-04T13:25:14.497Z,27.20
2023-09-04T13:27:41.632Z,27.10
2023-09-04T13:30:12.018Z,27.20
2023-09-04T13:32:39.082Z,27.30
2023-09-04T13:35:08.670Z,27.40
2023-09-04T13:37:37.509Z,27.50
2023-09-04T13:40:05.447Z,27.40
2023-09-04T13:42:32.635Z,27.40
2023-09-04T13:44:59.571Z,27.40
2023-09-04T13:47:27.420Z,27.50
2023-09-04T13:49:55.881Z,27.50
2023-09-04T13:52:26.011Z,27.60
2023-09-04T13:54:56.369Z,27.40
2023-09-04T13:57:25.101Z,27.40
2023-09-04T13:59:52.196Z,27.50
2023-09-04T14:02:19.147Z,27.50
2023-09-04T14:04:46.090Z,27.60
2023-09-04T14:07:13.004Z,27.60
2023-09-04T14:09:39.896Z,27.70
2023-09-04T14:12:07.406Z,27.70
2023-09-04T14:14:34.356Z,27.80
2023-09-04T14:17:01.242Z,27.80
2023-09-04T14:19:28.110Z,27.80
2023-09-04T14:21:55.260Z,27.80
2023-09-04T14:24:22.720Z,27.90
2023-09-04T14:26:52.668Z,27.80
2023-09-04T14:29:19.591Z,27.70
2023-09-04T14:31:46.945Z,27.80
2023-09-04T14:34:14.024Z,27.80
2023-09-04T14:36:45.321Z,27.80
2023-09-04T14:39:21.042Z,27.80
2023-09-04T14:41:48.196Z,27.80
2023-09-04T14:44:14.971Z,27.90
2023-09-04T14:46:41.876Z,28.10
2023-09-04T14:49:09.323Z,27.90
2023-09-04T14:51:36.156Z,28.00
2023-09-04T14:54:04.060Z,27.90
2023-09-04T14:56:30.875Z,27.80
2023-09-04T14:58:59.747Z,27.70
2023-09-04T15:01:26.873Z,27.70
2023-09-04T15:03:53.886Z,27.60
2023-09-04T15:06:20.767Z,27.50
2023-09-04T15:08:48.773Z,27.60
2023-09-04T15:11:17.787Z,27.60
2023-09-04T15:13:45.585Z,27.60
2023-09-04T15:16:12.550Z,27.70
2023-09-04T15:18:39.915Z,27.80
2023-09-04T15:21:07.383Z,27.90
2023-09-04T15:23:35.180Z,27.90
2023-09-04T15:26:02.762Z,28.00
2023-09-04T15:28:30.792Z,28.00
2023-09-04T15:30:58.749Z,28.10
2023-09-04T15:33:29.562Z,28.10
2023-09-04T15:36:02.230Z,28.00
2023-09-04T15:38:30.639Z,28.00
2023-09-04T15:40:57.409Z,28.10
2023-09-04T15:43:24.876Z,28.20
2023-09-04T15:45:53.079Z,28.20
2023-09-04T15:48:21.014Z,28.10
2023-09-04T15:50:48.845Z,28.10
2023-09-04T15:53:16.344Z,28.10
2023-09-04T15:55:43.187Z,28.10
2023-09-04T15:58:09.992Z,28.10
2023-09-04T16:00:37.184Z,28.30
2023-09-04T16:03:04.765Z,28.40
2023-09-04T16:05:31.876Z,28.30
2023-09-04T16:07:58.721Z,28.30
2023-09-04T16:10:25.554Z,28.20
2023-09-04T16:12:52.365Z,28.10
2023-09-04T16:15:20.148Z,28.10
2023-09-04T16:17:48.347Z,28.20
2023-09-04T16:20:15.340Z,28.10
2023-09-04T16:22:42.264Z,28.10
2023-09-04T16:25:09.394Z,28.20
2023-09-04T16:27:36.318Z,28.20
2023-09-04T16:30:05.377Z,28.20
2023-09-04T16:32:32.217Z,28.30
2023-09-04T16:34:58.989Z,28.20
2023-09-04T16:37:25.777Z,28.30
2023-09-04T16:39:52.534Z,28.30
2023-09-04T16:42:19.325Z,28.30
2023-09-04T16:44:46.167Z,28.10
2023-09-04T16:47:13.018Z,28.10
2023-09-04T16:49:39.796Z,28.10
2023-09-04T16:52:07.122Z,28.00
2023-09-04T16:54:33.946Z,28.00
2023-09-04T16:57:00.799Z,27.80
2023-09-04T16:59:27.676Z,27.70
2023-09-04T17:01:54.490Z,28.10
2023-09-04T17:04:21.365Z,27.70
2023-09-04T17:06:48.512Z,27.60
2023-09-04T17:09:15.337Z,27.50
2023-09-04T17:11:42.062Z,27.40
2023-09-04T17:14:08.982Z,27.30
2023-09-04T17:16:35.980Z,27.20
2023-09-04T17:19:02.811Z,27.10
2023-09-04T17:21:29.595Z,27.10
2023-09-04T17:23:56.525Z,27.50
2023-09-04T17:26:23.361Z,27.90
2023-09-04T17:28:50.140Z,28.10
2023-09-04T17:31:17.009Z,28.30
2023-09-04T17:33:44.393Z,28.20
2023-09-04T17:36:11.208Z,28.00
2023-09-04T17:38:38.242Z,27.80
2023-09-04T17:41:09.190Z,27.60
2023-09-04T17:43:36.508Z,27.30
2023-09-04T17:46:04.045Z,27.20
2023-09-04T17:48:31.978Z,26.80
2023-09-04T17:51:01.002Z,26.40
2023-09-04T17:53:28.258Z,26.10
2023-09-04T17:55:55.162Z,26.00
2023-09-04T17:58:22.158Z,25.90
2023-09-04T18:00:48.969Z,25.90
2023-09-04T18:03:15.996Z,25.60
2023-09-04T18:05:43.596Z,25.40
2023-09-04T18:08:10.607Z,25.30
2023-09-04T18:10:37.925Z,25.20
2023-09-04T18:13:05.049Z,25.00
2023-09-04T18:15:31.948Z,25.00
2023-09-04T18:17:58.846Z,25.00
2023-09-04T18:20:25.767Z,24.70
2023-09-04T18:22:52.566Z,24.70
2023-09-04T18:25:19.790Z,24.40
2023-09-04T18:27:46.756Z,24.20
2023-09-04T18:30:17.056Z,24.30
2023-09-04T18:32:43.970Z,24.10
2023-09-04T18:35:11.701Z,24.00
2023-09-04T18:37:38.601Z,24.00
2023-09-04T18:40:05.881Z,23.90
2023-09-04T18:42:32.768Z,23.80
2023-09-04T18:44:59.600Z,23.70
2023-09-04T18:47:26.550Z,23.50
2023-09-04T18:49:53.361Z,23.40
2023-09-04T18:52:21.001Z,23.30
2023-09-04T18:54:48.367Z,23.30
2023-09-04T18:57:18.316Z,23.20
2023-09-04T18:59:45.180Z,23.10
2023-09-04T19:02:13.810Z,23.10
2023-09-04T19:04:40.620Z,22.90
2023-09-04T19:07:07.423Z,22.80
2023-09-04T19:09:34.276Z,22.80
2023-09-04T19:12:01.814Z,22.70
2023-09-04T19:14:29.423Z,22.70
2023-09-04T19:16:56.409Z,22.60
2023-09-04T19:19:23.580Z,22.40
2023-09-04T19:21:50.537Z,22.50
2023-09-04T19:24:17.285Z,22.40
2023-09-04T19:26:44.586Z,22.30
2023-09-04T19:29:11.617Z,22.20
2023-09-04T19:31:38.665Z,22.20
2023-09-04T19:34:05.519Z,22.30
2023-09-04T19:36:32.383Z,22.80
2023-09-04T19:38:59.142Z,23.20
2023-09-04T19:41:25.989Z,23.70
2023-09-04T19:43:53.833Z,24.20
2023-09-04T19:46:21.074Z,24.50
2023-09-04T19:48:47.893Z,24.80
2023-09-04T19:51:15.109Z,25.00
2023-09-04T19:53:41.920Z,25.20
2023-09-04T19:56:08.840Z,25.30
2023-09-04T19:58:35.610Z,25.50
2023-09-04T20:01:06.170Z,25.50
2023-09-04T20:03:34.842Z,25.50
2023-09-04T20:06:02.048Z,25.50
2023-09-04T20:08:28.806Z,25.40
2023-09-04T20:10:55.580Z,25.40
2023-09-04T20:13:25.701Z,25.30
2023-09-04T20:15:53.339Z,25.30
2023-09-04T20:18:20.241Z,25.20
2023-09-04T20:20:47.123Z,25.30
2023-09-04T20:23:13.886Z,25.20
2023-09-04T20:25:40.682Z,25.10
2023-09-04T20:28:07.579Z,25.20
2023-09-04T20:30:34.405Z,25.20
2023-09-04T20:33:01.402Z,25.00
2023-09-04T20:35:28.260Z,25.00
2023-09-04T20:37:56.003Z,24.90
2023-09-04T20:40:26.088Z,24.90
2023-09-04T20:42:53.006Z,24.90
2023-09-04T20:45:19.776Z,24.90
2023-09-04T20:47:46.574Z,24.80
2023-09-04T20:50:13.405Z,24.80
2023-09-04T20:52:40.382Z,24.90
2023-09-04T20:55:07.380Z,24.70
2023-09-04T20:57:34.127Z,24.70
2023-09-04T21:00:00.934Z,24.70
2023-09-04T21:02:27.775Z,24.70
2023-09-04T21:04:54.938Z,24.60
2023-09-04T21:07:21.632Z,24.70
2023-09-04T21:09:48.399Z,24.60
2023-09-04T21:12:33.587Z,24.50
2023-09-04T21:15:19.050Z,24.60
2023-09-04T21:18:04.444Z,24.60
2023-09-04T21:20:50.030Z,24.60
2023-09-04T21:23:35.574Z,24.50
2023-09-04T21:26:21.212Z,24.40
2023-09-04T21:29:06.559Z,24.20
2023-09-04T21:31:51.931Z,24.20
2023-09-04T21:34:38.025Z,24.00
2023-09-04T21:37:23.569Z,23.80
2023-09-04T21:40:08.923Z,23.60
2023-09-04T21:42:54.605Z,23.40
2023-09-04T21:45:40.026Z,23.40
2023-09-04T21:48:25.465Z,23.40
2023-09-04T21:51:11.039Z,23.40
2023-09-04T21:53:56.384Z,23.00
2023-09-04T21:56:41.812Z,23.10
2023-09-04T21:59:27.258Z,22.80
2023-09-04T22:02:12.897Z,22.90
2023-09-04T22:05:00.040Z,22.90
2023-09-04T22:07:45.712Z,22.80
2023-09-04T22:10:31.332Z,22.70
2023-09-04T22:13:16.897Z,22.40
2023-09-04T22:16:03.854Z,22.40
2023-09-04T22:18:49.822Z,22.30
2023-09-04T22:21:35.239Z,22.30
2023-09-04T22:24:20.857Z,22.10
2023-09-04T22:27:06.341Z,22.10
2023-09-04T22:29:53.552Z,22.20
2023-09-04T22:32:39.783Z,21.40
2023-09-04T22:35:25.621Z,21.90
2023-09-04T22:38:11.079Z,21.70
2023-09-04T22:40:56.456Z,21.50
2023-09-04T22:43:42.034Z,21.50
2023-09-04T22:46:27.647Z,21.40
2023-09-04T22:49:13.230Z,21.20
2023-09-04T22:51:58.843Z,21.10
2023-09-04T22:54:44.455Z,20.90
2023-09-04T22:57:29.996Z,21.00
2023-09-04T23:00:15.691Z,20.80
2023-09-04T23:03:01.334Z,20.50
2023-09-04T23:05:46.804Z,20.80
2023-09-04T23:08:32.155Z,20.80
2023-09-04T23:11:17.704Z,20.70
2023-09-04T23:14:03.529Z,20.80
2023-09-04T23:16:51.061Z,20.70
2023-09-04T23:19:37.068Z,20.80
2023-09-04T23:22:05.158Z,20.80
2023-09-04T23:24:32.908Z,20.80
2023-09-04T23:27:00.660Z,20.70
2023-09-04T23:29:28.425Z,20.80
2023-09-04T23:32:10.504Z,21.20
2023-09-04T23:34:38.301Z,21.60
2023-09-04T23:37:14.063Z,22.10
2023-09-04T23:40:01.094Z,22.40
2023-09-04T23:42:53.696Z,22.80
2023-09-04T23:45:21.190Z,23.00
2023-09-04T23:47:51.985Z,23.20
2023-09-04T23:50:24.185Z,23.10
2023-09-04T23:52:55.519Z,22.80
2023-09-04T23:55:24.637Z,22.70
2023-09-04T23:57:51.824Z,22.40
